Time;durP1;ratioP1;P1;durP2;ratioP2;P2;SDS_P1;SDS_P2;PMS_P1;PMS_P2;Temp;Humidity;BMP_temperature;BMP_pressure;BME280_temperature;BME280_humidity;BME280_pressure;Samples;Min_cycle;Max_cycle;Signal;HPM_P1;HPM_P2
2022/02/12 00:01:06;;;;;;;10.43;3.30;;;;;;;;;;6196901;23;21025;-86
2022/02/12 00:04:10;;;;;;;5.97;3.00;;;;;;;;;;6162875;23;21032;-87
2022/02/12 00:07:14;;;;;;;10.10;4.90;;;;;;;;;;6169840;23;20842;-87
2022/02/12 00:10:19;;;;;;;7.60;3.70;;;;;;;;;;6169850;23;20899;-86
2022/02/12 00:13:23;;;;;;;10.00;4.90;;;;;;;;;;6179532;23;20500;-87
2022/02/12 00:16:28;;;;;;;7.67;3.83;;;;;;;;;;6180083;23;20505;-87
2022/02/12 00:19:32;;;;;;;6.90;3.83;;;;;;;;;;6152142;23;20563;-86
2022/02/12 00:22:37;;;;;;;9.97;4.10;;;;;;;;;;6152233;23;20555;-86
2022/02/12 00:25:41;;;;;;;7.80;3.30;;;;;;;;;;6152663;23;20547;-86
2022/02/12 00:28:45;;;;;;;6.70;3.43;;;;;;;;;;6155364;23;20576;-86
2022/02/12 00:31:49;;;;;;;10.87;4.27;;;;;;;;;;6168614;23;20932;-86
2022/02/12 00:34:53;;;;;;;6.77;3.17;;;;;;;;;;6169744;23;20552;-86
2022/02/12 00:37:57;;;;;;;7.07;3.13;;;;;;;;;;6190988;23;20607;-86
2022/02/12 00:41:02;;;;;;;8.30;3.47;;;;;;;;;;6179382;23;20500;-86
2022/02/12 00:44:06;;;;;;;9.53;3.80;;;;;;;;;;6162081;23;21017;-86
2022/02/12 00:47:10;;;;;;;10.37;4.00;;;;;;;;;;6161743;23;20505;-86
2022/02/12 00:50:14;;;;;;;7.80;3.10;;;;;;;;;;6162338;23;20564;-85
2022/02/12 00:53:18;;;;;;;6.80;3.37;;;;;;;;;;6169244;23;20548;-85
2022/02/12 00:56:22;;;;;;;9.87;3.30;;;;;;;;;;6178829;23;20804;-86
2022/02/12 00:59:26;;;;;;;8.53;3.30;;;;;;;;;;6169400;23;20568;-85
2022/02/12 01:02:31;;;;;;;8.57;3.27;;;;;;;;;;6152110;23;20548;-85
2022/02/12 01:05:36;;;;;;;9.70;3.23;;;;;;;;;;6152312;23;20552;-85
2022/02/12 01:08:40;;;;;;;11.90;3.57;;;;;;;;;;6155581;23;20575;-85
2022/02/12 01:11:45;;;;;;;6.90;3.03;;;;;;;;;;6162070;23;20863;-85
2022/02/12 01:14:50;;;;;;;6.93;3.07;;;;;;;;;;6162017;23;20505;-85
2022/02/12 01:17:54;;;;;;;5.77;3.47;;;;;;;;;;6175467;23;20572;-85
2022/02/12 01:20:58;;;;;;;8.07;3.43;;;;;;;;;;6162015;23;20501;-85
2022/02/12 01:24:02;;;;;;;7.30;3.77;;;;;;;;;;6161968;23;20500;-85
2022/02/12 01:27:06;;;;;;;10.03;4.03;;;;;;;;;;6151586;23;20560;-85
2022/02/12 01:30:11;;;;;;;9.30;3.43;;;;;;;;;;6152274;23;20556;-85
2022/02/12 01:33:15;;;;;;;7.80;3.73;;;;;;;;;;6161548;23;20504;-85
2022/02/12 01:36:19;;;;;;;8.33;3.37;;;;;;;;;;6161736;23;20504;-85
2022/02/12 01:39:24;;;;;;;7.67;3.40;;;;;;;;;;6152536;23;20571;-86
2022/02/12 01:42:28;;;;;;;9.37;4.03;;;;;;;;;;6161840;23;20496;-85
2022/02/12 01:45:32;;;;;;;7.33;3.30;;;;;;;;;;6161876;23;20504;-85
2022/02/12 01:48:39;;;;;;;8.90;4.13;;;;;;;;;;6155319;23;20572;-86
2022/02/12 01:51:43;;;;;;;7.90;4.10;;;;;;;;;;6161997;23;20556;-86
2022/02/12 01:54:48;;;;;;;9.27;3.70;;;;;;;;;;6161402;23;20501;-85
2022/02/12 01:57:52;;;;;;;6.97;3.77;;;;;;;;;;6158420;23;20576;-85
2022/02/12 02:00:56;;;;;;;8.60;3.90;;;;;;;;;;6161813;23;20497;-85
2022/02/12 02:04:00;;;;;;;6.23;3.40;;;;;;;;;;6161511;23;20505;-85
2022/02/12 02:07:05;;;;;;;7.43;3.83;;;;;;;;;;6168637;23;21095;-85
2022/02/12 02:10:10;;;;;;;5.90;3.43;;;;;;;;;;6168547;23;20559;-85
2022/02/12 02:13:24;;;;;;;6.40;3.60;;;;;;;;;;6168403;23;20545;-85
2022/02/12 02:16:29;;;;;;;9.60;3.83;;;;;;;;;;6168497;23;20552;-85
2022/02/12 02:19:33;;;;;;;5.20;3.93;;;;;;;;;;6161732;23;20505;-85
2022/02/12 02:22:46;;;;;;;8.60;3.90;;;;;;;;;;6151415;23;20547;-85
2022/02/12 02:25:50;;;;;;;12.73;4.30;;;;;;;;;;6161345;23;20504;-85
2022/02/12 02:28:54;;;;;;;6.47;3.87;;;;;;;;;;6153741;23;20575;-85
2022/02/12 02:31:58;;;;;;;8.17;3.83;;;;;;;;;;6161291;23;21092;-86
2022/02/12 02:35:03;;;;;;;6.60;3.60;;;;;;;;;;6178481;23;20509;-85
2022/02/12 02:38:08;;;;;;;11.20;4.07;;;;;;;;;;6157976;23;20595;-85
2022/02/12 02:41:12;;;;;;;7.13;3.87;;;;;;;;;;6178571;23;21038;-85
2022/02/12 02:44:17;;;;;;;10.03;4.73;;;;;;;;;;6195475;23;20504;-88
2022/02/12 02:47:36;;;;;;;7.47;3.90;;;;;;;;;;6177043;23;20500;-88
2022/02/12 02:57:27;;;;;;;8.07;3.67;;;;;;;;;;6137057;23;21337;-87
2022/02/12 03:00:31;;;;;;;5.37;3.70;;;;;;;;;;6198111;23;20504;-88
2022/02/12 03:03:40;;;;;;;7.13;3.50;;;;;;;;;;6179991;23;20500;-87
2022/02/12 03:06:45;;;;;;;8.83;3.33;;;;;;;;;;6162987;23;20501;-88
2022/02/12 03:09:49;;;;;;;7.00;3.23;;;;;;;;;;6179953;23;20508;-88
2022/02/12 03:12:53;;;;;;;7.27;3.87;;;;;;;;;;6179904;23;20564;-88
2022/02/12 03:15:58;;;;;;;8.90;3.43;;;;;;;;;;6163224;23;20505;-87
2022/02/12 03:19:02;;;;;;;8.17;3.87;;;;;;;;;;6171661;23;20572;-88
2022/02/12 03:22:06;;;;;;;10.20;3.83;;;;;;;;;;6179939;23;20497;-88
2022/02/12 03:25:11;;;;;;;7.83;3.50;;;;;;;;;;6162869;23;20504;-87
2022/02/12 03:28:14;;;;;;;8.30;3.70;;;;;;;;;;6175081;23;20571;-88
2022/02/12 03:31:18;;;;;;;7.20;3.77;;;;;;;;;;6179629;23;20871;-88
2022/02/12 03:34:22;;;;;;;11.37;4.07;;;;;;;;;;6179683;23;20824;-87
2022/02/12 03:37:28;;;;;;;8.13;3.50;;;;;;;;;;6169939;23;20593;-88
2022/02/12 03:40:34;;;;;;;8.77;3.70;;;;;;;;;;6163190;23;20508;-88
2022/02/12 03:43:38;;;;;;;11.30;4.03;;;;;;;;;;6179540;23;20496;-88
2022/02/12 03:46:42;;;;;;;11.30;4.13;;;;;;;;;;6152970;23;20637;-87
2022/02/12 03:49:46;;;;;;;7.13;3.50;;;;;;;;;;6152690;23;20903;-88
2022/02/12 03:52:51;;;;;;;6.70;3.80;;;;;;;;;;6162389;23;20560;-87
2022/02/12 03:55:55;;;;;;;6.37;3.30;;;;;;;;;;6162397;23;20501;-88
2022/02/12 03:58:59;;;;;;;7.60;3.77;;;;;;;;;;6154876;23;20576;-88
2022/02/12 04:02:03;;;;;;;8.50;3.70;;;;;;;;;;6162398;23;20497;-87
2022/02/12 04:05:10;;;;;;;12.13;3.83;;;;;;;;;;6179430;23;21040;-87
2022/02/12 04:08:18;;;;;;;9.73;4.33;;;;;;;;;;6169095;23;20913;-88
2022/02/12 04:11:22;;;;;;;7.47;3.80;;;;;;;;;;6179753;23;20552;-87
2022/02/12 04:14:26;;;;;;;9.53;3.93;;;;;;;;;;6152039;23;20552;-88
2022/02/12 04:17:34;;;;;;;7.43;3.50;;;;;;;;;;6169255;23;21139;-88
2022/02/12 04:20:40;;;;;;;6.77;3.60;;;;;;;;;;6196752;23;20505;-87
2022/02/12 04:23:44;;;;;;;7.57;3.67;;;;;;;;;;6179262;23;20497;-87
2022/02/12 04:26:47;;;;;;;8.00;4.20;;;;;;;;;;6152237;23;20552;-87
2022/02/12 04:29:52;;;;;;;9.17;4.07;;;;;;;;;;6152496;23;20544;-87
2022/02/12 04:32:56;;;;;;;7.33;4.00;;;;;;;;;;6179202;23;21077;-89
2022/02/12 04:36:01;;;;;;;7.87;4.03;;;;;;;;;;6162180;23;20816;-89
2022/02/12 04:39:05;;;;;;;12.07;4.53;;;;;;;;;;6166243;23;20591;-88
2022/02/12 04:42:11;;;;;;;12.13;4.50;;;;;;;;;;6162091;23;20508;-89
2022/02/12 04:45:15;;;;;;;11.97;4.40;;;;;;;;;;6179131;23;20826;-89
2022/02/12 04:48:19;;;;;;;8.63;4.13;;;;;;;;;;6169034;23;21162;-88
2022/02/12 04:51:23;;;;;;;10.33;4.50;;;;;;;;;;6152242;23;21089;-88
2022/02/12 04:54:27;;;;;;;10.80;4.50;;;;;;;;;;6162132;23;20512;-88
2022/02/12 04:57:31;;;;;;;13.20;5.00;;;;;;;;;;6177162;23;21140;-88
2022/02/12 05:00:35;;;;;;;8.33;4.67;;;;;;;;;;6161875;23;21065;-88
2022/02/12 05:03:39;;;;;;;8.07;4.50;;;;;;;;;;6178927;23;20501;-88
2022/02/12 05:06:44;;;;;;;12.53;4.60;;;;;;;;;;6179164;23;21029;-88
2022/02/12 05:09:48;;;;;;;5.63;3.53;;;;;;;;;;6178709;23;20527;-88
2022/02/12 05:12:52;;;;;;;9.40;4.73;;;;;;;;;;6178587;23;20557;-88
2022/02/12 05:15:57;;;;;;;10.00;4.40;;;;;;;;;;6196259;23;20810;-88
2022/02/12 05:19:02;;;;;;;12.37;4.23;;;;;;;;;;6170865;23;20579;-88
2022/02/12 05:22:07;;;;;;;8.20;4.23;;;;;;;;;;6179066;23;20508;-88
2022/02/12 05:25:11;;;;;;;10.37;4.33;;;;;;;;;;6178703;23;20501;-88
2022/02/12 05:28:15;;;;;;;10.03;4.80;;;;;;;;;;6185566;23;20913;-89
2022/02/12 05:31:20;;;;;;;12.37;4.90;;;;;;;;;;6168292;23;20560;-89
2022/02/12 05:34:24;;;;;;;7.40;4.00;;;;;;;;;;6178618;23;20517;-88
2022/02/12 05:37:28;;;;;;;9.87;4.73;;;;;;;;;;6193303;23;21152;-89
2022/02/12 05:40:32;;;;;;;7.90;4.23;;;;;;;;;;6161501;23;20500;-88
2022/02/12 05:43:36;;;;;;;11.33;4.37;;;;;;;;;;6178600;23;20497;-88
2022/02/12 05:46:40;;;;;;;8.73;4.80;;;;;;;;;;6161459;23;20510;-89
2022/02/12 05:49:44;;;;;;;8.67;4.63;;;;;;;;;;6178169;23;20505;-88
2022/02/12 05:52:49;;;;;;;5.60;4.57;;;;;;;;;;6178473;23;20556;-88
2022/02/12 05:55:53;;;;;;;11.17;5.37;;;;;;;;;;6161499;23;20505;-89
2022/02/12 05:58:58;;;;;;;9.07;4.83;;;;;;;;;;6153936;23;20579;-87
2022/02/12 06:02:02;;;;;;;10.73;5.20;;;;;;;;;;6178584;23;21029;-87
2022/02/12 06:05:06;;;;;;;8.00;4.60;;;;;;;;;;6178663;23;21052;-87
2022/02/12 06:08:11;;;;;;;12.43;5.40;;;;;;;;;;6168209;23;20580;-87
2022/02/12 06:11:15;;;;;;;9.83;5.40;;;;;;;;;;6151527;23;20629;-87
2022/02/12 06:14:19;;;;;;;9.40;5.20;;;;;;;;;;6161529;23;20823;-87
2022/02/12 06:17:24;;;;;;;10.00;5.23;;;;;;;;;;6178421;23;21033;-88
2022/02/12 06:20:28;;;;;;;10.30;4.93;;;;;;;;;;6162389;23;20512;-87
2022/02/12 06:23:34;;;;;;;10.83;5.37;;;;;;;;;;6163064;23;20496;-86
2022/02/12 06:26:40;;;;;;;12.50;5.53;;;;;;;;;;6162390;23;20511;-87
2022/02/12 06:29:44;;;;;;;10.17;5.60;;;;;;;;;;6163890;23;20525;-87
2022/02/12 06:32:48;;;;;;;8.30;5.20;;;;;;;;;;6169314;23;20607;-87
2022/02/12 06:35:52;;;;;;;10.67;5.10;;;;;;;;;;6152750;23;20548;-88
2022/02/12 06:38:56;;;;;;;9.93;5.87;;;;;;;;;;6183177;23;20614;-87
2022/02/12 06:42:01;;;;;;;10.67;5.43;;;;;;;;;;6161659;23;20501;-89
2022/02/12 06:45:06;;;;;;;9.43;5.67;;;;;;;;;;6166266;23;20513;-86
2022/02/12 06:48:10;;;;;;;10.07;5.60;;;;;;;;;;6193494;23;20575;-87
2022/02/12 06:51:15;;;;;;;14.10;5.50;;;;;;;;;;6173206;23;20910;-87
2022/02/12 06:54:19;;;;;;;9.33;5.83;;;;;;;;;;6178673;23;20507;-84
2022/02/12 06:57:24;;;;;;;10.97;5.13;;;;;;;;;;6151274;23;20556;-87
2022/02/12 07:00:29;;;;;;;12.07;5.90;;;;;;;;;;6167783;23;20559;-88
2022/02/12 07:03:33;;;;;;;12.70;6.30;;;;;;;;;;6179966;23;20503;-88
2022/02/12 07:06:37;;;;;;;13.23;6.53;;;;;;;;;;6196517;23;20512;-86
2022/02/12 07:09:41;;;;;;;12.70;6.80;;;;;;;;;;6179138;23;20839;-86
2022/02/12 07:12:46;;;;;;;12.30;6.47;;;;;;;;;;6179343;23;20564;-87
2022/02/12 07:15:50;;;;;;;12.33;6.50;;;;;;;;;;6179594;23;20511;-86
2022/02/12 07:18:54;;;;;;;16.20;7.50;;;;;;;;;;6171590;23;20583;-87
2022/02/12 07:21:58;;;;;;;12.77;7.13;;;;;;;;;;6180000;23;20507;-88
2022/02/12 07:25:03;;;;;;;17.80;7.17;;;;;;;;;;6179588;23;20511;-87
2022/02/12 07:28:07;;;;;;;9.17;6.80;;;;;;;;;;6173769;23;20591;-88
2022/02/12 07:31:13;;;;;;;11.03;6.23;;;;;;;;;;6178533;23;21049;-87
2022/02/12 07:34:18;;;;;;;10.97;6.20;;;;;;;;;;6171129;23;20596;-87
2022/02/12 07:37:22;;;;;;;12.73;6.47;;;;;;;;;;6159479;23;20840;-88
2022/02/12 07:40:27;;;;;;;11.17;6.17;;;;;;;;;;6179166;23;20504;-88
2022/02/12 07:43:32;;;;;;;19.13;6.53;;;;;;;;;;6162730;23;20505;-87
2022/02/12 07:46:36;;;;;;;11.80;6.53;;;;;;;;;;6163882;23;20508;-88
2022/02/12 07:49:41;;;;;;;10.43;6.73;;;;;;;;;;6170202;23;20552;-87
2022/02/12 07:52:45;;;;;;;14.97;6.70;;;;;;;;;;6164638;23;20556;-88
2022/02/12 07:55:50;;;;;;;12.63;6.00;;;;;;;;;;6180491;23;20501;-88
2022/02/12 07:58:54;;;;;;;16.60;7.13;;;;;;;;;;6155664;23;20579;-87
2022/02/12 08:01:58;;;;;;;14.00;6.50;;;;;;;;;;6178289;23;20556;-86
2022/02/12 08:05:03;;;;;;;20.33;10.53;;;;;;;;;;6164196;23;20803;-87
2022/02/12 08:08:07;;;;;;;19.03;10.63;;;;;;;;;;6176608;23;21158;-88
2022/02/12 08:11:23;;;;;;;21.80;9.97;;;;;;;;;;6165025;23;20515;-87
2022/02/12 08:14:28;;;;;;;21.80;9.40;;;;;;;;;;6166728;23;21109;-87
2022/02/12 08:17:31;;;;;;;14.77;7.43;;;;;;;;;;6164980;23;20576;-87
2022/02/12 08:20:36;;;;;;;17.60;8.60;;;;;;;;;;6162905;23;20501;-86
2022/02/12 08:23:40;;;;;;;12.67;7.33;;;;;;;;;;6165474;23;20500;-86
2022/02/12 08:26:44;;;;;;;19.17;7.50;;;;;;;;;;6180224;23;20807;-87
2022/02/12 08:29:48;;;;;;;13.10;7.10;;;;;;;;;;6153322;23;20544;-87
2022/02/12 08:32:53;;;;;;;14.90;6.77;;;;;;;;;;6180664;23;20557;-87
2022/02/12 08:35:57;;;;;;;12.30;6.90;;;;;;;;;;6162760;23;20509;-87
2022/02/12 08:39:01;;;;;;;12.77;6.13;;;;;;;;;;6166949;23;20595;-86
2022/02/12 08:42:06;;;;;;;15.07;6.83;;;;;;;;;;6182994;23;20505;-86
2022/02/12 08:45:11;;;;;;;13.33;7.03;;;;;;;;;;6183683;23;21018;-87
2022/02/12 08:48:16;;;;;;;13.20;7.13;;;;;;;;;;6173460;23;20583;-86
2022/02/12 08:51:20;;;;;;;16.07;8.20;;;;;;;;;;6172493;23;20871;-86
2022/02/12 08:54:24;;;;;;;19.20;8.40;;;;;;;;;;6180436;23;21096;-87
2022/02/12 08:57:29;;;;;;;18.73;7.93;;;;;;;;;;6179559;23;20584;-87
2022/02/12 09:00:33;;;;;;;18.13;8.23;;;;;;;;;;6163215;23;20803;-86
2022/02/12 09:03:37;;;;;;;15.70;8.50;;;;;;;;;;6183589;23;20505;-85
2022/02/12 09:06:42;;;;;;;17.53;8.53;;;;;;;;;;6179779;23;20509;-86
2022/02/12 09:09:46;;;;;;;20.23;8.47;;;;;;;;;;6163785;23;21068;-86
2022/02/12 09:12:51;;;;;;;20.53;9.73;;;;;;;;;;6181767;23;20863;-86
2022/02/12 09:15:55;;;;;;;22.17;10.07;;;;;;;;;;6173441;23;20517;-86
2022/02/12 09:18:59;;;;;;;24.20;10.27;;;;;;;;;;6159107;23;21143;-87
2022/02/12 09:22:03;;;;;;;19.20;10.20;;;;;;;;;;6167206;23;20522;-86
2022/02/12 09:25:08;;;;;;;17.13;10.40;;;;;;;;;;6173503;23;20554;-87
2022/02/12 09:28:12;;;;;;;18.93;9.53;;;;;;;;;;6192097;23;21190;-85
2022/02/12 09:31:16;;;;;;;17.20;7.97;;;;;;;;;;6167823;23;20517;-87
2022/02/12 09:34:20;;;;;;;15.40;8.00;;;;;;;;;;6179949;23;20578;-86
2022/02/12 09:37:25;;;;;;;14.23;6.50;;;;;;;;;;6169598;23;20580;-86
2022/02/12 09:40:31;;;;;;;14.53;6.23;;;;;;;;;;6181887;23;20521;-87
2022/02/12 09:43:35;;;;;;;16.33;6.87;;;;;;;;;;6178514;23;20556;-86
2022/02/12 09:47:04;;;;;;;13.93;6.07;;;;;;;;;;6155428;23;20895;-88
2022/02/12 09:50:09;;;;;;;15.27;7.00;;;;;;;;;;6180244;23;20505;-88
2022/02/12 09:53:13;;;;;;;13.13;6.17;;;;;;;;;;6183186;23;20568;-85
2022/02/12 09:56:18;;;;;;;12.67;7.13;;;;;;;;;;6165181;23;20520;-85
2022/02/12 09:59:22;;;;;;;12.93;6.83;;;;;;;;;;6156158;23;20568;-87
2022/02/12 10:02:26;;;;;;;12.83;5.47;;;;;;;;;;6162393;23;20521;-87
2022/02/12 10:05:31;;;;;;;13.33;5.47;;;;;;;;;;6179670;23;20516;-86
2022/02/12 10:08:37;;;;;;;9.97;5.17;;;;;;;;;;6182609;23;20579;-86
2022/02/12 10:11:43;;;;;;;8.93;5.53;;;;;;;;;;6162843;23;20602;-88
2022/02/12 10:14:47;;;;;;;10.77;5.87;;;;;;;;;;6181399;23;20863;-85
2022/02/12 10:17:56;;;;;;;11.27;5.10;;;;;;;;;;6166070;23;20196;-86
2022/02/12 10:21:01;;;;;;;8.87;4.60;;;;;;;;;;6161315;23;20157;-87
2022/02/12 10:24:05;;;;;;;10.27;4.63;;;;;;;;;;6161445;23;20145;-89
2022/02/12 10:27:09;;;;;;;10.63;4.90;;;;;;;;;;6164381;23;20156;-87
2022/02/12 10:30:14;;;;;;;8.73;4.77;;;;;;;;;;6179430;23;20157;-87
2022/02/12 10:33:19;;;;;;;10.27;4.80;;;;;;;;;;6188718;23;20185;-87
2022/02/12 10:36:23;;;;;;;8.93;4.57;;;;;;;;;;6161215;23;20157;-87
2022/02/12 10:39:27;;;;;;;9.03;4.30;;;;;;;;;;6173373;23;20504;-87
2022/02/12 10:42:32;;;;;;;10.27;3.70;;;;;;;;;;6178389;23;20157;-86
2022/02/12 10:45:36;;;;;;;7.00;3.53;;;;;;;;;;6161933;23;20149;-86
2022/02/12 10:48:41;;;;;;;12.40;4.63;;;;;;;;;;6162353;23;20188;-86
2022/02/12 10:51:46;;;;;;;8.10;3.43;;;;;;;;;;6167047;23;20153;-86
2022/02/12 10:54:51;;;;;;;4.63;3.33;;;;;;;;;;6163910;23;20610;-87
2022/02/12 10:58:03;;;;;;;7.07;3.30;;;;;;;;;;6160395;23;20637;-86
2022/02/12 11:01:08;;;;;;;9.23;3.73;;;;;;;;;;6178499;23;20468;-88
2022/02/12 11:04:14;;;;;;;7.50;4.00;;;;;;;;;;6180270;23;20153;-87
2022/02/12 11:07:19;;;;;;;7.90;3.63;;;;;;;;;;6177580;23;20456;-88
2022/02/12 11:10:23;;;;;;;8.70;3.47;;;;;;;;;;6160340;23;20160;-88
2022/02/12 11:13:29;;;;;;;6.90;3.73;;;;;;;;;;6161287;23;20181;-88
2022/02/12 11:16:36;;;;;;;7.20;4.20;;;;;;;;;;6146044;23;20160;-88
2022/02/12 11:19:43;;;;;;;5.77;3.73;;;;;;;;;;6164365;23;20571;-88
2022/02/12 11:22:50;;;;;;;6.23;3.70;;;;;;;;;;6162819;23;20153;-86
2022/02/12 11:26:01;;;;;;;8.23;3.93;;;;;;;;;;6182685;23;20153;-87
2022/02/12 11:29:37;;;;;;;7.63;3.20;;;;;;;;;;6156187;23;20193;-86
2022/02/12 11:32:42;;;;;;;5.90;2.87;;;;;;;;;;6163411;23;20149;-87
2022/02/12 11:36:18;;;;;;;7.83;3.67;;;;;;;;;;6163314;23;20153;-88
2022/02/12 11:39:27;;;;;;;4.83;3.30;;;;;;;;;;6192982;23;20200;-86
2022/02/12 11:42:59;;;;;;;6.70;3.10;;;;;;;;;;6164258;23;20157;-88
2022/02/12 11:46:04;;;;;;;6.13;3.13;;;;;;;;;;6163581;23;20603;-86
2022/02/12 11:49:28;;;;;;;6.73;3.30;;;;;;;;;;6158215;23;20192;-87
2022/02/12 11:52:38;;;;;;;7.37;3.43;;;;;;;;;;6165643;23;20153;-88
2022/02/12 11:55:42;;;;;;;10.47;4.20;;;;;;;;;;6164730;23;20153;-89
2022/02/12 11:58:51;;;;;;;6.87;3.27;;;;;;;;;;6153853;23;20188;-88
2022/02/12 12:01:55;;;;;;;6.33;3.67;;;;;;;;;;6163828;23;20157;-88
2022/02/12 12:05:22;;;;;;;8.67;4.30;;;;;;;;;;6153411;23;20625;-88
2022/02/12 12:08:26;;;;;;;6.80;3.60;;;;;;;;;;6157707;23;20188;-89
2022/02/12 12:11:30;;;;;;;9.80;4.27;;;;;;;;;;6173677;23;20173;-89
2022/02/12 12:14:34;;;;;;;6.97;4.10;;;;;;;;;;6154438;23;20196;-86
2022/02/12 12:17:39;;;;;;;7.70;4.20;;;;;;;;;;6154913;23;20193;-88
2022/02/12 12:20:46;;;;;;;6.30;3.07;;;;;;;;;;6155087;23;20164;-86
2022/02/12 12:23:55;;;;;;;6.30;2.73;;;;;;;;;;6155812;23;20165;-86
2022/02/12 12:27:00;;;;;;;3.53;2.43;;;;;;;;;;6156410;23;20169;-88
2022/02/12 12:33:42;;;;;;;5.37;2.70;;;;;;;;;;6182879;23;20149;-87
2022/02/12 12:36:46;;;;;;;5.20;2.90;;;;;;;;;;6162928;23;20157;-88
2022/02/12 12:39:51;;;;;;;6.07;2.80;;;;;;;;;;6153973;23;20176;-87
2022/02/12 12:43:06;;;;;;;4.13;2.77;;;;;;;;;;6163866;23;20153;-87
2022/02/12 12:46:11;;;;;;;7.27;3.60;;;;;;;;;;6163169;23;20145;-87
2022/02/12 12:49:42;;;;;;;5.73;2.83;;;;;;;;;;6170264;23;20645;-87
2022/02/12 12:52:46;;;;;;;6.73;3.17;;;;;;;;;;6162623;23;20157;-87
2022/02/12 12:55:50;;;;;;;5.53;3.17;;;;;;;;;;6161459;23;20185;-88
2022/02/12 12:59:21;;;;;;;6.43;3.00;;;;;;;;;;6154740;23;20188;-88
2022/02/12 13:02:26;;;;;;;10.00;3.00;;;;;;;;;;6145382;23;20157;-87
2022/02/12 13:05:31;;;;;;;3.10;2.53;;;;;;;;;;6169504;23;20165;-87
2022/02/12 13:08:36;;;;;;;6.27;2.93;;;;;;;;;;6155893;23;20503;-87
2022/02/12 13:11:40;;;;;;;10.70;3.10;;;;;;;;;;6165749;23;20157;-86
2022/02/12 13:14:45;;;;;;;4.70;3.17;;;;;;;;;;6178803;23;20181;-87
2022/02/12 13:17:54;;;;;;;4.73;2.90;;;;;;;;;;6180131;23;20193;-87
2022/02/12 13:21:12;;;;;;;5.57;2.63;;;;;;;;;;6179336;23;20153;-88
2022/02/12 13:24:19;;;;;;;5.10;2.80;;;;;;;;;;6170079;23;20149;-88
2022/02/12 13:27:31;;;;;;;5.87;3.10;;;;;;;;;;6195948;23;20153;-88
2022/02/12 13:30:36;;;;;;;6.40;3.23;;;;;;;;;;6168204;23;20153;-87
2022/02/12 13:33:40;;;;;;;4.53;3.00;;;;;;;;;;6161774;23;20583;-87
2022/02/12 13:36:48;;;;;;;4.83;3.30;;;;;;;;;;6186194;23;20156;-86
2022/02/12 13:39:55;;;;;;;6.73;3.10;;;;;;;;;;6142629;23;20145;-87
2022/02/12 13:43:10;;;;;;;4.77;2.83;;;;;;;;;;6157609;23;20150;-87
2022/02/12 13:46:19;;;;;;;4.33;3.07;;;;;;;;;;6140500;23;20153;-87
2022/02/12 13:49:27;;;;;;;4.60;3.03;;;;;;;;;;6116502;23;20190;-86
2022/02/12 13:52:31;;;;;;;8.67;3.30;;;;;;;;;;6156497;23;20158;-87
2022/02/12 13:55:50;;;;;;;5.57;3.30;;;;;;;;;;6137027;23;20181;-87
2022/02/12 13:58:54;;;;;;;6.40;3.30;;;;;;;;;;6115130;23;20197;-86
2022/02/12 14:01:59;;;;;;;5.73;2.73;;;;;;;;;;6136495;23;20153;-87
2022/02/12 14:05:03;;;;;;;3.47;2.67;;;;;;;;;;6137053;23;20154;-86
2022/02/12 14:08:07;;;;;;;5.33;2.50;;;;;;;;;;6128194;23;20193;-88
2022/02/12 14:11:12;;;;;;;3.13;2.43;;;;;;;;;;6135686;23;20607;-88
2022/02/12 14:14:17;;;;;;;5.27;2.87;;;;;;;;;;6132218;23;20185;-88
2022/02/12 14:17:21;;;;;;;5.80;3.10;;;;;;;;;;6131264;23;20461;-87
2022/02/12 14:20:25;;;;;;;5.67;2.83;;;;;;;;;;6161148;23;20157;-86
2022/02/12 14:23:30;;;;;;;8.00;3.17;;;;;;;;;;6158158;23;20468;-86
2022/02/12 14:26:35;;;;;;;4.53;2.80;;;;;;;;;;6133792;23;20157;-87
2022/02/12 14:29:39;;;;;;;4.10;2.47;;;;;;;;;;6152552;23;20153;-86
2022/02/12 14:32:44;;;;;;;4.23;2.43;;;;;;;;;;6135160;23;20159;-87
2022/02/12 14:35:53;;;;;;;6.87;2.30;;;;;;;;;;6148669;23;20492;-87
2022/02/12 14:38:58;;;;;;;4.27;2.67;;;;;;;;;;6135145;23;20667;-87
2022/02/12 14:42:02;;;;;;;4.40;2.90;;;;;;;;;;6150034;23;20158;-86
2022/02/12 14:45:06;;;;;;;6.13;2.93;;;;;;;;;;6173655;23;20149;-88
2022/02/12 14:48:11;;;;;;;3.73;2.57;;;;;;;;;;6156006;23;20193;-86
2022/02/12 14:51:18;;;;;;;6.23;2.23;;;;;;;;;;6157428;23;20157;-87
2022/02/12 14:54:23;;;;;;;3.67;2.40;;;;;;;;;;6150913;23;20154;-87
2022/02/12 14:57:27;;;;;;;5.60;2.47;;;;;;;;;;6151150;23;20157;-88
2022/02/12 15:00:31;;;;;;;3.23;2.07;;;;;;;;;;6167160;23;20157;-88
2022/02/12 15:03:36;;;;;;;3.70;2.33;;;;;;;;;;6148838;23;20154;-87
2022/02/12 15:06:40;;;;;;;4.80;2.60;;;;;;;;;;6149073;23;20153;-87
2022/02/12 15:09:44;;;;;;;4.73;2.57;;;;;;;;;;6148553;23;20158;-88
2022/02/12 15:12:48;;;;;;;13.80;3.70;;;;;;;;;;6131339;23;20154;-88
2022/02/12 15:15:53;;;;;;;3.53;2.33;;;;;;;;;;6155424;23;20185;-87
2022/02/12 15:18:57;;;;;;;5.00;2.37;;;;;;;;;;6138562;23;20189;-87
2022/02/12 15:22:02;;;;;;;7.40;2.80;;;;;;;;;;6138814;23;20173;-87
2022/02/12 15:25:08;;;;;;;5.47;2.47;;;;;;;;;;6152496;23;20149;-87
2022/02/12 15:28:12;;;;;;;3.90;2.40;;;;;;;;;;6146114;23;20501;-88
2022/02/12 15:31:17;;;;;;;6.03;2.63;;;;;;;;;;6152634;23;20157;-87
2022/02/12 15:34:24;;;;;;;4.93;2.37;;;;;;;;;;6133815;23;20158;-87
2022/02/12 15:37:29;;;;;;;3.57;2.30;;;;;;;;;;6156713;23;20180;-87
2022/02/12 15:40:33;;;;;;;3.70;2.20;;;;;;;;;;6163016;23;20161;-89
2022/02/12 15:43:39;;;;;;;4.60;2.37;;;;;;;;;;6167733;23;20157;-88
2022/02/12 15:46:43;;;;;;;4.23;2.50;;;;;;;;;;6171039;23;20595;-87
2022/02/12 15:49:49;;;;;;;5.87;2.00;;;;;;;;;;6163820;23;20161;-88
2022/02/12 15:52:55;;;;;;;3.30;3.00;;;;;;;;;;6162943;23;20157;-87
2022/02/12 15:55:59;;;;;;;6.10;2.63;;;;;;;;;;6160212;23;20184;-88
2022/02/12 15:59:03;;;;;;;4.53;2.40;;;;;;;;;;6154017;23;20646;-87
2022/02/12 16:02:07;;;;;;;3.87;2.30;;;;;;;;;;6163431;23;20157;-88
2022/02/12 16:05:11;;;;;;;3.90;2.40;;;;;;;;;;6163488;23;20583;-87
2022/02/12 16:08:15;;;;;;;3.80;2.00;;;;;;;;;;6160904;23;20339;-88
2022/02/12 16:11:19;;;;;;;4.47;2.30;;;;;;;;;;6186436;23;20152;-87
2022/02/12 16:14:48;;;;;;;3.70;2.23;;;;;;;;;;6165631;23;20156;-87
2022/02/12 16:17:52;;;;;;;4.10;1.90;;;;;;;;;;6176669;23;20196;-87
2022/02/12 16:20:57;;;;;;;5.50;2.10;;;;;;;;;;6164745;23;20157;-87
2022/02/12 16:24:03;;;;;;;3.57;2.40;;;;;;;;;;6155858;23;20168;-88
2022/02/12 16:27:07;;;;;;;3.90;2.47;;;;;;;;;;6156048;23;20165;-87
2022/02/12 16:30:11;;;;;;;3.87;2.03;;;;;;;;;;6163461;23;20157;-89
2022/02/12 16:33:16;;;;;;;5.53;2.17;;;;;;;;;;6164067;23;20157;-89
2022/02/12 16:36:20;;;;;;;5.33;2.43;;;;;;;;;;6180968;23;20184;-88
2022/02/12 16:39:24;;;;;;;4.23;2.20;;;;;;;;;;6156413;23;20185;-86
2022/02/12 16:42:28;;;;;;;2.70;1.80;;;;;;;;;;6164973;23;20157;-88
2022/02/12 16:45:32;;;;;;;3.37;2.17;;;;;;;;;;6180790;23;20152;-88
2022/02/12 16:48:37;;;;;;;3.80;2.13;;;;;;;;;;6156165;23;20650;-87
2022/02/12 16:51:41;;;;;;;3.67;1.90;;;;;;;;;;6162586;23;20157;-88
2022/02/12 16:54:46;;;;;;;3.27;1.90;;;;;;;;;;6165251;23;20161;-86
2022/02/12 16:57:50;;;;;;;4.10;1.90;;;;;;;;;;6163119;23;20192;-88
2022/02/12 17:00:54;;;;;;;2.50;1.90;;;;;;;;;;6163549;23;20152;-88
2022/02/12 17:03:58;;;;;;;3.70;1.80;;;;;;;;;;6161780;23;20501;-89
2022/02/12 17:07:03;;;;;;;3.60;2.27;;;;;;;;;;6161864;23;21029;-87
2022/02/12 17:10:08;;;;;;;4.00;1.90;;;;;;;;;;6161822;23;20504;-88
2022/02/12 17:13:12;;;;;;;7.77;2.27;;;;;;;;;;6161473;23;20505;-86
2022/02/12 17:16:16;;;;;;;4.47;1.63;;;;;;;;;;6161946;23;20556;-88
2022/02/12 17:19:20;;;;;;;3.30;1.87;;;;;;;;;;6170947;23;20609;-87
2022/02/12 17:22:24;;;;;;;6.07;1.87;;;;;;;;;;6180687;23;20500;-89
2022/02/12 17:25:29;;;;;;;3.23;1.97;;;;;;;;;;6152358;23;20556;-89
2022/02/12 17:28:34;;;;;;;4.40;2.17;;;;;;;;;;6151940;23;20575;-87
2022/02/12 17:31:40;;;;;;;5.73;2.63;;;;;;;;;;6162075;23;20504;-89
2022/02/12 17:34:43;;;;;;;4.63;2.20;;;;;;;;;;6161694;23;21025;-88
2022/02/12 17:37:48;;;;;;;2.93;2.20;;;;;;;;;;6158449;23;20587;-86
2022/02/12 17:40:55;;;;;;;4.93;2.57;;;;;;;;;;6153326;23;20560;-86
2022/02/12 17:43:59;;;;;;;4.43;2.70;;;;;;;;;;6164566;23;20501;-87
2022/02/12 17:47:03;;;;;;;4.87;2.60;;;;;;;;;;6162381;23;20500;-86
2022/02/12 17:50:08;;;;;;;5.57;2.80;;;;;;;;;;6179405;23;20504;-86
2022/02/12 17:53:12;;;;;;;3.57;2.53;;;;;;;;;;6161730;23;20516;-86
2022/02/12 17:56:17;;;;;;;4.50;2.77;;;;;;;;;;6161128;23;20556;-87
2022/02/12 17:59:21;;;;;;;6.17;3.07;;;;;;;;;;6152249;23;20575;-88
2022/02/12 18:02:25;;;;;;;6.57;3.30;;;;;;;;;;6161034;23;20509;-88
2022/02/12 18:05:29;;;;;;;6.10;3.10;;;;;;;;;;6178247;23;20496;-88
2022/02/12 18:09:35;;;;;;;6.70;3.70;;;;;;;;;;6155286;23;20572;-88
2022/02/12 18:11:58;;;;;;;4.57;3.17;;;;;;;;;;6168007;23;20563;-88
2022/02/12 18:15:03;;;;;;;4.67;2.90;;;;;;;;;;6161280;23;20501;-88
2022/02/12 18:18:07;;;;;;;4.00;2.60;;;;;;;;;;6157363;23;21132;-88
2022/02/12 18:21:11;;;;;;;6.97;3.30;;;;;;;;;;6161823;23;21017;-88
2022/02/12 18:24:15;;;;;;;5.60;2.83;;;;;;;;;;6161071;23;20500;-88
2022/02/12 18:27:19;;;;;;;4.40;2.97;;;;;;;;;;6160789;23;20501;-88
2022/02/12 18:30:23;;;;;;;8.67;3.40;;;;;;;;;;6161200;23;20500;-88
2022/02/12 18:33:27;;;;;;;7.13;3.20;;;;;;;;;;6161040;23;20812;-88
2022/02/12 18:36:32;;;;;;;4.33;3.17;;;;;;;;;;6161240;23;20883;-88